Time;durP1;ratioP1;P1;durP2;ratioP2;P2;SDS_P1;SDS_P2;PMS_P1;PMS_P2;Temp;Humidity;BMP_temperature;BMP_pressure;BME280_temperature;BME280_humidity;BME280_pressure;Samples;Min_cycle;Max_cycle;Signal;HPM_P1;HPM_P2
2023/10/06 00:01:31;;;;;;;;;;;;;;;12.81;93.82;102432.81;5046765;28;1177;-78
2023/10/06 00:03:59;;;;;;;;;;;;;;;12.80;94.23;102425.94;5048084;28;1162;-78
2023/10/06 00:06:27;;;;;;;;;;;;;;;12.78;94.21;102423.41;5038857;28;1255;-78
2023/10/06 00:08:54;;;;;;;;;;;;;;;12.79;94.20;102424.25;5044510;28;1133;-77
2023/10/06 00:11:29;;;;;;;;;;;;;;;12.79;94.26;102419.06;5050644;28;1222;-78
2023/10/06 00:14:00;;;;;;;;;;;;;;;12.74;94.19;102407.19;5030678;28;1357;-78
2023/10/06 00:16:26;;;;;;;;;;;;;;;12.73;94.57;102415.94;5029670;28;1965;-77
2023/10/06 00:18:53;;;;;;;;;;;;;;;12.72;94.57;102411.63;5029073;28;1493;-77
2023/10/06 00:21:21;;;;;;;;;;;;;;;12.69;94.49;102409.25;5049350;28;1113;-77
2023/10/06 00:23:47;;;;;;;;;;;;;;;12.69;94.53;102401.44;5027574;28;1281;-78
2023/10/06 00:26:18;;;;;;;;;;;;;;;12.69;94.66;102406.66;5030189;28;1340;-78
2023/10/06 00:28:44;;;;;;;;;;;;;;;12.69;94.58;102411.84;5027520;28;1526;-79
2023/10/06 00:31:11;;;;;;;;;;;;;;;12.66;94.30;102409.44;5028799;28;1179;-79
2023/10/06 00:33:42;;;;;;;;;;;;;;;12.64;94.50;102411.31;5042623;28;1224;-78
2023/10/06 00:36:14;;;;;;;;;;;;;;;12.62;94.89;102410.59;5043378;28;1132;-77
2023/10/06 00:38:47;;;;;;;;;;;;;;;12.58;95.10;102411.72;5036944;28;1898;-79
2023/10/06 00:41:14;;;;;;;;;;;;;;;12.59;95.28;102409.94;5026567;28;1429;-79
2023/10/06 00:43:39;;;;;;;;;;;;;;;12.55;94.98;102401.50;5042688;28;1148;-79
2023/10/06 00:46:08;;;;;;;;;;;;;;;12.54;95.19;102410.25;5041470;28;1287;-78
2023/10/06 00:48:39;;;;;;;;;;;;;;;12.54;95.74;102410.25;5049638;28;1292;-77
2023/10/06 00:51:21;;;;;;;;;;;;;;;12.55;95.84;102405.88;5049019;28;1403;-78
2023/10/06 00:53:47;;;;;;;;;;;;;;;12.55;95.82;102401.50;5050133;28;1013;-78
2023/10/06 00:56:15;;;;;;;;;;;;;;;12.53;95.72;102392.97;5031494;28;1359;-78
2023/10/06 00:58:41;;;;;;;;;;;;;;;12.55;96.34;102401.50;5048828;28;1906;-78
2023/10/06 01:01:07;;;;;;;;;;;;;;;12.52;95.86;102391.28;5049286;28;1045;-78
2023/10/06 01:03:38;;;;;;;;;;;;;;;12.48;96.00;102384.63;5049126;28;1125;-77
2023/10/06 01:06:08;;;;;;;;;;;;;;;12.46;95.96;102391.69;5033166;28;1101;-78
2023/10/06 01:08:33;;;;;;;;;;;;;;;12.44;96.09;102394.41;5042649;28;990;-78
2023/10/06 01:11:11;;;;;;;;;;;;;;;12.43;95.59;102387.50;5046728;28;1129;-78
2023/10/06 01:13:36;;;;;;;;;;;;;;;12.41;96.77;102393.75;5048525;28;1154;-78
2023/10/06 01:16:02;;;;;;;;;;;;;;;12.42;96.06;102396.25;5050976;28;1224;-77
2023/10/06 01:18:35;;;;;;;;;;;;;;;12.41;96.29;102388.56;5041781;28;1898;-77
2023/10/06 01:21:13;;;;;;;;;;;;;;;12.40;96.45;102379.09;5046312;28;1340;-78
2023/10/06 01:23:38;;;;;;;;;;;;;;;12.36;96.67;102375.00;5048466;28;1270;-78
2023/10/06 01:26:04;;;;;;;;;;;;;;;12.37;96.37;102387.06;5050548;28;1142;-78
2023/10/06 01:28:34;;;;;;;;;;;;;;;12.35;96.83;102383.75;5030154;28;1302;-78
2023/10/06 01:31:02;;;;;;;;;;;;;;;12.37;96.88;102371.47;5043489;28;1233;-78
2023/10/06 01:33:27;;;;;;;;;;;;;;;12.37;97.16;102376.66;5050813;28;1217;-78
2023/10/06 01:35:53;;;;;;;;;;;;;;;12.36;97.29;102375.00;5045417;28;1200;-77
2023/10/06 01:38:24;;;;;;;;;;;;;;;12.36;97.64;102364.59;5049591;28;1902;-78
2023/10/06 01:40:53;;;;;;;;;;;;;;;12.36;97.44;102364.59;5045561;28;1201;-78
2023/10/06 01:43:22;;;;;;;;;;;;;;;12.35;96.89;102368.97;5028393;28;1538;-78
2023/10/06 01:45:51;;;;;;;;;;;;;;;12.32;97.55;102363.09;5047851;28;1231;-78
2023/10/06 01:50:48;;;;;;;;;;;;;;;12.34;97.21;102356.06;5046613;28;1106;-78
2023/10/06 01:53:18;;;;;;;;;;;;;;;12.33;97.80;102354.38;5048976;28;1480;-77
2023/10/06 01:55:43;;;;;;;;;;;;;;;12.31;97.76;102354.47;5052111;28;972;-77
2023/10/06 01:58:11;;;;;;;;;;;;;;;12.32;97.48;102352.69;5031009;28;1926;-77
2023/10/06 02:00:37;;;;;;;;;;;;;;;12.33;97.80;102354.38;5032817;28;1313;-78
2023/10/06 02:03:03;;;;;;;;;;;;;;;12.32;98.29;102352.69;5052448;28;1221;-77
2023/10/06 02:05:28;;;;;;;;;;;;;;;12.29;97.86;102353.75;5054387;28;1247;-78
2023/10/06 02:08:00;;;;;;;;;;;;;;;12.28;97.95;102359.06;5045648;28;1122;-78
2023/10/06 02:10:26;;;;;;;;;;;;;;;12.28;97.41;102362.50;5033867;28;1299;-77
2023/10/06 02:12:51;;;;;;;;;;;;;;;12.26;98.15;102368.72;5050457;28;1109;-79
2023/10/06 02:15:16;;;;;;;;;;;;;;;12.26;97.85;102363.50;5053085;28;1121;-78
2023/10/06 02:17:42;;;;;;;;;;;;;;;12.26;98.25;102358.31;5031041;28;1934;-78
2023/10/06 02:20:29;;;;;;;;;;;;;;;12.27;97.60;102370.38;5017986;28;1180;-77
2023/10/06 02:23:02;;;;;;;;;;;;;;;12.28;98.74;102366.88;5045535;28;1155;-78
2023/10/06 02:25:28;;;;;;;;;;;;;;;12.29;97.84;102373.72;5051467;28;1126;-77
2023/10/06 02:27:53;;;;;;;;;;;;;;;12.30;98.02;102367.59;5025413;28;1431;-79
2023/10/06 02:30:25;;;;;;;;;;;;;;;12.28;98.17;102372.06;5044594;28;1138;-77
2023/10/06 02:32:51;;;;;;;;;;;;;;;12.28;98.32;102362.50;5041532;28;1145;-78
2023/10/06 02:35:17;;;;;;;;;;;;;;;12.26;98.27;102353.09;5046790;28;1169;-77
2023/10/06 02:37:46;;;;;;;;;;;;;;;12.28;98.44;102361.66;5033178;28;2004;-78
2023/10/06 02:40:12;;;;;;;;;;;;;;;12.28;98.67;102351.25;5030885;28;1248;-77
2023/10/06 02:42:43;;;;;;;;;;;;;;;12.27;98.28;102354.75;5044910;28;1098;-77
2023/10/06 02:45:08;;;;;;;;;;;;;;;12.27;98.09;102341.75;5047903;28;1005;-78
2023/10/06 02:47:35;;;;;;;;;;;;;;;12.23;98.13;102349.78;5032450;28;1169;-77
2023/10/06 02:50:07;;;;;;;;;;;;;;;12.25;98.23;102347.06;5047084;28;934;-77
2023/10/06 02:52:38;;;;;;;;;;;;;;;12.26;98.55;102355.69;5039929;28;1055;-79
2023/10/06 02:57:34;;;;;;;;;;;;;;;12.22;98.35;102348.13;5041629;28;1964;-78
2023/10/06 03:00:28;;;;;;;;;;;;;;;12.21;98.55;102346.44;5052042;28;1061;-77
2023/10/06 03:02:45;;;;;;;;;;;;;;;12.18;98.29;102349.22;5052919;28;1435;-78
2023/10/06 03:05:12;;;;;;;;;;;;;;;12.18;98.24;102346.63;5030168;28;1181;-77
2023/10/06 03:07:38;;;;;;;;;;;;;;;12.15;98.22;102344.22;5042167;28;1151;-78
2023/10/06 03:10:08;;;;;;;;;;;;;;;12.13;98.44;102343.50;5050102;28;1151;-77
2023/10/06 03:12:33;;;;;;;;;;;;;;;12.12;98.94;102341.00;5051980;28;1144;-78
2023/10/06 03:14:59;;;;;;;;;;;;;;;12.11;98.42;102328.94;5031835;28;1453;-77
2023/10/06 03:17:24;;;;;;;;;;;;;;;12.08;98.56;102335.13;5040970;28;2014;-77
2023/10/06 03:22:37;;;;;;;;;;;;;;;12.05;98.90;102329.31;5045303;28;1055;-77
2023/10/06 03:25:14;;;;;;;;;;;;;;;12.03;99.25;102337.19;5030214;28;1227;-77
2023/10/06 03:27:40;;;;;;;;;;;;;;;12.01;98.96;102328.66;5026556;28;1266;-78
2023/10/06 03:30:18;;;;;;;;;;;;;;;11.98;99.61;102328.84;5038673;28;1182;-78
2023/10/06 03:32:48;;;;;;;;;;;;;;;11.95;99.34;102324.69;5027465;28;1318;-77
2023/10/06 03:40:46;;;;;;;;;;;;;;;11.90;99.66;102305.94;5049897;28;1149;-78
2023/10/06 03:43:15;;;;;;;;;;;;;;;11.87;100.00;102310.50;5046144;28;1367;-79
2023/10/06 03:45:42;;;;;;;;;;;;;;;11.85;99.91;102301.97;5050166;28;1234;-79
2023/10/06 03:50:40;;;;;;;;;;;;;;;11.80;99.90;102288.38;5049735;28;1188;-80
2023/10/06 03:53:09;;;;;;;;;;;;;;;11.77;99.84;102293.81;5031019;28;1261;-77
2023/10/06 03:55:45;;;;;;;;;;;;;;;11.76;100.00;102302.53;5045695;28;1206;-78
2023/10/06 03:58:11;;;;;;;;;;;;;;;11.76;99.89;102305.13;5042519;28;1874;-78
2023/10/06 04:00:40;;;;;;;;;;;;;;;11.75;100.00;102299.06;5024107;28;1484;-77
2023/10/06 04:03:06;;;;;;;;;;;;;;;11.75;100.00;102306.03;5043272;28;1202;-78
2023/10/06 04:05:37;;;;;;;;;;;;;;;11.75;100.00;102303.44;5027803;28;1483;-78
2023/10/06 04:08:07;;;;;;;;;;;;;;;11.75;100.00;102311.22;5030994;28;1126;-78
2023/10/06 04:10:34;;;;;;;;;;;;;;;11.74;99.90;102309.56;5043672;28;1249;-80
2023/10/06 04:12:59;;;;;;;;;;;;;;;11.72;100.00;102316.66;5027563;28;1499;-79
2023/10/06 04:15:26;;;;;;;;;;;;;;;11.68;100.00;102311.63;5048655;28;1325;-78
2023/10/06 04:17:51;;;;;;;;;;;;;;;11.69;100.00;102302.88;5021585;28;1914;-79
2023/10/06 04:20:17;;;;;;;;;;;;;;;11.70;100.00;102308.94;5048458;28;1117;-79
2023/10/06 04:22:42;;;;;;;;;;;;;;;11.63;100.00;102298.06;5044729;28;1428;-78
2023/10/06 04:25:10;;;;;;;;;;;;;;;11.63;100.00;102305.88;5026659;28;1500;-79
2023/10/06 04:27:36;;;;;;;;;;;;;;;11.62;100.00;102309.41;5047831;28;1625;-78
2023/10/06 04:30:04;;;;;;;;;;;;;;;11.60;100.00;102293.09;5046191;28;1011;-80
2023/10/06 04:32:29;;;;;;;;;;;;;;;11.59;100.00;102295.78;5035832;28;1334;-80
2023/10/06 04:34:54;;;;;;;;;;;;;;;11.55;100.00;102289.09;5036058;28;1278;-78
2023/10/06 04:37:20;;;;;;;;;;;;;;;11.53;100.00;102281.41;5051293;28;1894;-78
2023/10/06 04:39:45;;;;;;;;;;;;;;;11.52;100.00;102284.91;5038814;28;1303;-79
2023/10/06 04:42:10;;;;;;;;;;;;;;;11.52;100.00;102284.91;5033351;28;2421;-78
2023/10/06 04:44:35;;;;;;;;;;;;;;;11.50;100.00;102286.78;5050115;28;1160;-78
2023/10/06 04:47:00;;;;;;;;;;;;;;;11.47;100.00;102271.41;5052357;28;1126;-79
2023/10/06 04:49:26;;;;;;;;;;;;;;;11.44;100.00;102267.22;5037733;28;1251;-79
2023/10/06 04:51:51;;;;;;;;;;;;;;;11.40;100.00;102280.50;5052236;28;1182;-80
2023/10/06 04:54:20;;;;;;;;;;;;;;;11.39;100.00;102284.03;5042570;28;1270;-79
2023/10/06 04:56:45;;;;;;;;;;;;;;;11.37;100.00;102275.50;5062427;28;1882;-80
2023/10/06 04:59:11;;;;;;;;;;;;;;;11.38;100.00;102274.56;5044411;28;1476;-79
2023/10/06 05:01:36;;;;;;;;;;;;;;;11.37;100.00;102265.94;5060945;28;1121;-79
2023/10/06 05:04:09;;;;;;;;;;;;;;;11.38;100.00;102282.34;5039515;28;1252;-78
2023/10/06 05:06:34;;;;;;;;;;;;;;;11.38;100.00;102283.19;5061054;28;943;-80
2023/10/06 05:08:59;;;;;;;;;;;;;;;11.38;100.00;102280.59;5039176;28;1373;-76
2023/10/06 05:11:24;;;;;;;;;;;;;;;11.40;100.00;102280.50;5051197;28;1122;-79
2023/10/06 05:13:52;;;;;;;;;;;;;;;11.39;100.00;102284.03;5050887;28;1157;-79
2023/10/06 05:16:19;;;;;;;;;;;;;;;11.43;100.00;102285.50;5041310;28;1153;-79
2023/10/06 05:18:45;;;;;;;;;;;;;;;11.42;100.00;102294.22;5054211;28;1922;-79
2023/10/06 05:21:11;;;;;;;;;;;;;;;11.43;100.00;102285.50;5061951;28;1222;-78
2023/10/06 05:23:36;;;;;;;;;;;;;;;11.44;100.00;102279.38;5069390;28;1120;-78
2023/10/06 05:26:08;;;;;;;;;;;;;;;11.43;100.00;102277.72;5065085;28;1200;-80
2023/10/06 05:28:34;;;;;;;;;;;;;;;11.44;100.00;102281.97;5067409;28;1221;-79
2023/10/06 05:30:59;;;;;;;;;;;;;;;11.45;100.00;102275.84;5068447;28;1090;-79
2023/10/06 05:33:27;;;;;;;;;;;;;;;11.47;100.00;102268.81;5081169;28;1102;-79
2023/10/06 05:35:52;;;;;;;;;;;;;;;11.48;99.92;102273.06;5074440;28;1176;-79
2023/10/06 05:38:17;;;;;;;;;;;;;;;11.49;100.00;102269.53;5084925;28;1883;-79
2023/10/06 05:40:46;;;;;;;;;;;;;;;11.54;99.56;102271.84;5061075;28;1141;-78
2023/10/06 05:43:12;;;;;;;;;;;;;;;11.53;99.54;102283.19;5080364;28;984;-81
2023/10/06 05:45:43;;;;;;;;;;;;;;;11.54;99.21;102262.28;5062043;28;1410;-78
2023/10/06 05:48:10;;;;;;;;;;;;;;;11.55;99.36;102269.16;5035075;28;1302;-78
2023/10/06 05:50:35;;;;;;;;;;;;;;;11.54;99.51;102270.09;5049230;28;1403;-78
2023/10/06 05:53:04;;;;;;;;;;;;;;;11.56;99.54;102264.78;5031468;28;1595;-78
2023/10/06 05:55:30;;;;;;;;;;;;;;;11.56;99.18;102265.63;5049013;28;1173;-78
2023/10/06 05:57:56;;;;;;;;;;;;;;;11.57;98.94;102269.88;5048179;28;1906;-79
2023/10/06 06:00:29;;;;;;;;;;;;;;;11.58;99.57;102263.75;5029945;28;1361;-79
2023/10/06 06:02:59;;;;;;;;;;;;;;;11.59;98.82;102270.63;5048278;28;1149;-79
2023/10/06 06:05:26;;;;;;;;;;;;;;;11.60;99.57;102261.06;5046183;28;1106;-78
2023/10/06 06:07:51;;;;;;;;;;;;;;;11.60;99.17;102267.09;5031913;28;1563;-79
2023/10/06 06:10:17;;;;;;;;;;;;;;;11.61;99.09;102265.34;5048433;28;1220;-79
2023/10/06 06:12:42;;;;;;;;;;;;;;;11.61;99.11;102263.56;5026052;28;1182;-80
2023/10/06 06:15:08;;;;;;;;;;;;;;;11.62;99.17;102270.44;5051357;28;1031;-79
2023/10/06 06:17:34;;;;;;;;;;;;;;;11.63;98.90;102266.91;5052883;28;1902;-78
2023/10/06 06:20:00;;;;;;;;;;;;;;;11.64;99.12;102276.38;5046539;28;1181;-78
2023/10/06 06:22:25;;;;;;;;;;;;;;;11.65;98.67;102279.81;5047688;28;1203;-78
2023/10/06 06:24:50;;;;;;;;;;;;;;;11.67;99.06;102289.16;5049570;28;1214;-78
2023/10/06 06:27:16;;;;;;;;;;;;;;;11.67;98.58;102286.56;5030757;28;1438;-78
2023/10/06 06:29:43;;;;;;;;;;;;;;;11.67;98.14;102289.16;5048869;28;1173;-79
2023/10/06 06:32:11;;;;;;;;;;;;;;;11.70;98.22;102288.16;5030653;28;1259;-78
2023/10/06 06:34:37;;;;;;;;;;;;;;;11.72;98.56;102290.66;5046581;28;1196;-79
2023/10/06 06:37:02;;;;;;;;;;;;;;;11.73;98.46;102290.53;5026897;28;1903;-80
2023/10/06 06:39:32;;;;;;;;;;;;;;;11.76;98.93;102289.53;5052624;28;1142;-79
2023/10/06 06:41:57;;;;;;;;;;;;;;;11.78;98.22;102290.25;5046350;28;988;-80
2023/10/06 06:44:22;;;;;;;;;;;;;;;11.80;98.67;102291.00;5034227;28;1248;-80
2023/10/06 06:46:47;;;;;;;;;;;;;;;11.80;98.03;102283.19;5052274;28;1155;-79
2023/10/06 06:49:13;;;;;;;;;;;;;;;11.80;98.56;102288.38;5042218;28;1176;-79
2023/10/06 06:51:40;;;;;;;;;;;;;;;11.81;97.90;102280.53;5043350;28;1123;-79
2023/10/06 06:54:06;;;;;;;;;;;;;;;11.84;98.13;102282.09;5027947;28;1520;-79
2023/10/06 06:56:31;;;;;;;;;;;;;;;11.83;97.78;102283.03;5046478;28;1106;-79
2023/10/06 06:58:59;;;;;;;;;;;;;;;11.83;98.02;102289.06;5036634;28;1898;-79
2023/10/06 07:01:24;;;;;;;;;;;;;;;11.84;98.13;102292.50;5049444;28;911;-79
2023/10/06 07:03:50;;;;;;;;;;;;;;;11.85;97.89;102288.97;5051000;28;1155;-79
2023/10/06 07:06:16;;;;;;;;;;;;;;;11.84;98.12;102284.69;5046310;28;1250;-78
2023/10/06 07:08:42;;;;;;;;;;;;;;;11.84;97.96;102295.94;5041380;28;1083;-79
2023/10/06 07:11:10;;;;;;;;;;;;;;;11.84;98.01;102285.53;5045756;28;1154;-79
2023/10/06 07:13:35;;;;;;;;;;;;;;;11.86;97.57;102288.03;5042075;28;1168;-78
2023/10/06 07:16:00;;;;;;;;;;;;;;;11.86;98.21;102283.66;5044380;28;1224;-79
2023/10/06 07:18:26;;;;;;;;;;;;;;;11.88;98.20;102294.00;5049390;28;2006;-79
2023/10/06 07:20:52;;;;;;;;;;;;;;;11.88;97.82;102281.81;5044443;28;1143;-78
2023/10/06 07:23:18;;;;;;;;;;;;;;;11.89;98.03;102280.06;5050839;28;1223;-79
2023/10/06 07:25:43;;;;;;;;;;;;;;;11.89;97.71;102282.66;5036161;28;1310;-79
2023/10/06 07:28:10;;;;;;;;;;;;;;;11.91;98.02;102280.78;5051210;28;1172;-79
2023/10/06 07:30:36;;;;;;;;;;;;;;;11.95;97.99;102288.28;5055110;28;1142;-79
2023/10/06 07:33:05;;;;;;;;;;;;;;;11.98;98.05;102297.66;5030238;28;1362;-79
2023/10/06 07:35:31;;;;;;;;;;;;;;;12.03;97.75;102303.38;5050267;28;1012;-79
2023/10/06 07:37:57;;;;;;;;;;;;;;;12.08;97.77;102314.34;5047757;28;1894;-80
2023/10/06 07:40:22;;;;;;;;;;;;;;;12.18;97.43;102314.59;5048418;28;1088;-79
2023/10/06 07:42:51;;;;;;;;;;;;;;;12.20;97.75;102318.75;5028912;28;1370;-79
2023/10/06 07:45:20;;;;;;;;;;;;;;;12.24;97.55;102308.97;5025656;28;1396;-79
2023/10/06 07:47:46;;;;;;;;;;;;;;;12.35;97.20;102316.09;5044030;28;1241;-79
2023/10/06 07:50:15;;;;;;;;;;;;;;;12.43;97.19;102313.81;5044912;28;1126;-79
2023/10/06 07:52:44;;;;;;;;;;;;;;;12.49;97.37;102319.44;5022773;28;1307;-79
2023/10/06 07:55:09;;;;;;;;;;;;;;;12.58;97.50;102318.00;5048980;28;1253;-79
2023/10/06 07:57:37;;;;;;;;;;;;;;;12.66;97.19;102315.72;5029593;28;1894;-79
2023/10/06 08:00:06;;;;;;;;;;;;;;;12.74;97.02;102318.66;5029839;28;1215;-78
2023/10/06 08:02:39;;;;;;;;;;;;;;;12.83;96.86;102321.59;5041250;28;1134;-80
2023/10/06 08:05:06;;;;;;;;;;;;;;;12.89;96.84;102310.75;5029509;28;1459;-80
2023/10/06 08:07:31;;;;;;;;;;;;;;;12.98;96.74;102320.56;5029061;28;1219;-79
2023/10/06 08:09:58;;;;;;;;;;;;;;;13.08;96.54;102311.19;5047375;28;1172;-78
2023/10/06 08:12:23;;;;;;;;;;;;;;;13.20;95.98;102312.94;5040741;28;1198;-79
2023/10/06 08:14:49;;;;;;;;;;;;;;;13.25;96.07;102308.28;5043386;28;1275;-79
2023/10/06 08:17:14;;;;;;;;;;;;;;;13.33;96.29;102299.09;5049783;28;1964;-79
2023/10/06 08:19:39;;;;;;;;;;;;;;;13.42;96.25;102301.03;5045989;28;1310;-78
2023/10/06 08:22:05;;;;;;;;;;;;;;;13.52;95.86;102299.47;5030079;28;1261;-78
2023/10/06 08:24:31;;;;;;;;;;;;;;;13.60;95.72;102304.97;5055835;28;1114;-79
2023/10/06 08:26:57;;;;;;;;;;;;;;;13.74;95.23;102304.81;5036159;28;1566;-79
2023/10/06 08:29:23;;;;;;;;;;;;;;;13.80;95.51;102309.59;5053289;28;1153;-78
2023/10/06 08:31:48;;;;;;;;;;;;;;;13.91;95.04;102310.59;5049283;28;1121;-79
2023/10/06 08:34:14;;;;;;;;;;;;;;;14.01;94.80;102309.00;5031627;28;1202;-80
2023/10/06 08:36:41;;;;;;;;;;;;;;;14.05;95.32;102302.63;5028831;28;1318;-79
2023/10/06 08:39:08;;;;;;;;;;;;;;;14.11;95.10;102301.31;5032379;28;1894;-79
2023/10/06 08:41:35;;;;;;;;;;;;;;;14.16;94.86;102305.25;5030205;28;1439;-81
2023/10/06 08:44:02;;;;;;;;;;;;;;;14.24;94.63;102297.72;5045538;28;1181;-80
2023/10/06 08:46:30;;;;;;;;;;;;;;;14.32;94.52;102297.97;5029642;28;1285;-79
2023/10/06 08:48:56;;;;;;;;;;;;;;;14.42;94.15;102305.97;5044764;28;918;-80
2023/10/06 08:51:22;;;;;;;;;;;;;;;14.46;94.04;102302.19;5047045;28;998;-81
2023/10/06 08:53:49;;;;;;;;;;;;;;;14.52;93.76;102300.94;5035732;28;1220;-78
2023/10/06 08:56:15;;;;;;;;;;;;;;;14.53;93.82;102299.97;5047247;28;1053;-79
2023/10/06 08:58:41;;;;;;;;;;;;;;;14.55;93.68;102300.69;5057848;28;1945;-80
2023/10/06 09:01:07;;;;;;;;;;;;;;;14.57;94.02;102304.03;5037961;28;1377;-79
2023/10/06 09:03:32;;;;;;;;;;;;;;;14.60;93.98;102303.78;5056570;28;1067;-79
2023/10/06 09:05:57;;;;;;;;;;;;;;;14.64;93.70;102305.22;5054838;28;1076;-78
2023/10/06 09:08:23;;;;;;;;;;;;;;;14.68;93.39;102311.03;5036013;28;1436;-80
2023/10/06 09:10:54;;;;;;;;;;;;;;;14.70;93.58;102304.75;5036256;28;1312;-78
2023/10/06 09:13:19;;;;;;;;;;;;;;;14.78;93.11;102302.38;5030791;28;1233;-78
2023/10/06 09:15:57;;;;;;;;;;;;;;;14.80;93.34;102295.28;5052450;28;1102;-79
2023/10/06 09:18:27;;;;;;;;;;;;;;;14.84;93.19;102294.09;5049131;28;1930;-79
2023/10/06 09:20:54;;;;;;;;;;;;;;;14.90;92.81;102294.56;5053767;28;1158;-79
2023/10/06 09:23:32;;;;;;;;;;;;;;;14.92;93.20;102292.69;5047481;28;1098;-80
2023/10/06 09:25:58;;;;;;;;;;;;;;;15.01;92.65;102291.97;5052531;28;1110;-79
2023/10/06 09:28:24;;;;;;;;;;;;;;;15.02;92.68;102288.41;5047802;28;1201;-80
2023/10/06 09:30:57;;;;;;;;;;;;;;;15.08;92.91;102290.53;5051416;28;1125;-80
2023/10/06 09:33:26;;;;;;;;;;;;;;;15.11;93.12;102292.94;5046164;28;1164;-79
2023/10/06 09:36:16;;;;;;;;;;;;;;;15.14;92.37;102279.63;5032880;28;1248;-79
2023/10/06 09:38:41;;;;;;;;;;;;;;;15.19;92.80;102284.47;5044214;28;1905;-79
2023/10/06 09:41:09;;;;;;;;;;;;;;;15.22;93.12;102289.47;5030392;28;1266;-79
2023/10/06 09:43:38;;;;;;;;;;;;;;;15.28;92.88;102284.59;5044792;28;1058;-79
2023/10/06 09:46:07;;;;;;;;;;;;;;;15.38;93.09;102269.88;5045744;28;1234;-78
2023/10/06 09:48:34;;;;;;;;;;;;;;;15.46;92.91;102281.50;5040545;28;1143;-79
2023/10/06 09:51:01;;;;;;;;;;;;;;;15.59;92.13;102276.94;5040921;28;1178;-78
2023/10/06 09:53:27;;;;;;;;;;;;;;;15.59;92.50;102279.56;5046843;28;1145;-79
2023/10/06 09:55:52;;;;;;;;;;;;;;;15.69;92.24;102277.91;5039880;28;1348;-79
2023/10/06 09:58:17;;;;;;;;;;;;;;;15.75;92.43;102277.41;5018795;28;1910;-80
2023/10/06 10:00:43;;;;;;;;;;;;;;;15.88;92.36;102269.41;5039203;28;1185;-79
2023/10/06 10:03:12;;;;;;;;;;;;;;;15.99;91.18;102279.00;5037225;28;1571;-80
2023/10/06 10:05:38;;;;;;;;;;;;;;;16.09;91.06;102277.28;5047932;28;1129;-79
2023/10/06 10:08:04;;;;;;;;;;;;;;;16.19;91.85;102283.44;5047471;28;1293;-81
2023/10/06 10:10:29;;;;;;;;;;;;;;;16.36;90.98;102275.03;5047744;28;1424;-78
2023/10/06 10:12:57;;;;;;;;;;;;;;;16.50;90.93;102278.28;5048595;28;1248;-79
2023/10/06 10:15:22;;;;;;;;;;;;;;;16.61;90.19;102275.59;5054693;28;1239;-79
2023/10/06 10:18:01;;;;;;;;;;;;;;;16.70;90.35;102287.94;5045979;28;1894;-79
2023/10/06 10:20:27;;;;;;;;;;;;;;;16.78;89.90;102272.41;5053545;28;1143;-79
2023/10/06 10:22:56;;;;;;;;;;;;;;;16.86;89.09;102269.97;5051355;28;1118;-80
2023/10/06 10:25:23;;;;;;;;;;;;;;;16.89;88.67;102274.94;5050116;28;1094;-79
2023/10/06 10:28:07;;;;;;;;;;;;;;;16.89;88.33;102269.69;5019719;28;1335;-81
2023/10/06 10:30:56;;;;;;;;;;;;;;;16.96;88.23;102270.81;5032290;28;1190;-79
2023/10/06 10:33:25;;;;;;;;;;;;;;;17.03;88.64;102262.44;5033356;28;1522;-78
2023/10/06 10:36:17;;;;;;;;;;;;;;;17.10;88.45;102263.59;5048108;28;1444;-79
2023/10/06 10:38:43;;;;;;;;;;;;;;;17.28;88.08;102259.38;5045331;28;1894;-79
2023/10/06 10:41:16;;;;;;;;;;;;;;;17.34;87.55;102269.31;5050926;28;995;-79
2023/10/06 10:43:41;;;;;;;;;;;;;;;17.39;86.63;102272.38;5046805;28;1036;-78
2023/10/06 10:46:08;;;;;;;;;;;;;;;17.41;85.43;102265.19;5046313;28;1109;-78
2023/10/06 10:48:37;;;;;;;;;;;;;;;17.49;85.71;102261.88;5042852;28;1072;-79
2023/10/06 10:51:05;;;;;;;;;;;;;;;17.55;84.78;102257.88;5039889;28;910;-79
2023/10/06 10:53:31;;;;;;;;;;;;;;;17.53;84.82;102252.78;5026504;28;1175;-79
2023/10/06 10:55:57;;;;;;;;;;;;;;;17.52;83.82;102262.44;5048964;28;1280;-79
2023/10/06 10:58:41;;;;;;;;;;;;;;;17.45;84.33;102268.38;5028369;28;1965;-80
2023/10/06 11:01:31;;;;;;;;;;;;;;;17.46;83.92;102257.75;5045795;28;1133;-78
2023/10/06 11:04:09;;;;;;;;;;;;;;;17.53;83.78;102253.59;5029108;28;1212;-79
2023/10/06 11:06:37;;;;;;;;;;;;;;;17.62;83.61;102259.03;5047711;28;987;-80
2023/10/06 11:09:12;;;;;;;;;;;;;;;17.67;83.79;102265.53;5046368;28;1146;-80
2023/10/06 11:11:38;;;;;;;;;;;;;;;17.72;83.47;102258.09;5032071;28;1386;-79
2023/10/06 11:14:03;;;;;;;;;;;;;;;17.78;82.67;102272.47;5045362;28;1282;-79
2023/10/06 11:16:29;;;;;;;;;;;;;;;17.74;82.57;102265.81;5053603;28;1096;-79
2023/10/06 11:18:56;;;;;;;;;;;;;;;17.72;81.93;102268.59;5044158;28;1949;-80
2023/10/06 11:21:27;;;;;;;;;;;;;;;17.69;81.88;102257.50;5050071;28;1134;-78
2023/10/06 11:23:53;;;;;;;;;;;;;;;17.65;81.55;102256.09;5048180;28;1043;-79
2023/10/06 11:26:30;;;;;;;;;;;;;;;17.65;82.53;102266.59;5029240;28;1368;-80
2023/10/06 11:28:56;;;;;;;;;;;;;;;17.70;82.75;102253.91;5030143;28;1499;-79
2023/10/06 11:31:23;;;;;;;;;;;;;;;17.73;82.59;102254.50;5044666;28;1124;-79
2023/10/06 11:33:49;;;;;;;;;;;;;;;17.78;82.08;102256.72;5046473;28;1229;-79
2023/10/06 11:36:14;;;;;;;;;;;;;;;17.82;82.48;102246.75;5048464;28;1140;-78
2023/10/06 11:38:40;;;;;;;;;;;;;;;17.88;81.77;102257.53;5049162;28;1910;-79
2023/10/06 11:41:05;;;;;;;;;;;;;;;17.88;82.00;102252.28;5032385;28;1166;-78
2023/10/06 11:43:31;;;;;;;;;;;;;;;17.87;82.42;102250.63;5026967;28;1318;-79
2023/10/06 11:46:02;;;;;;;;;;;;;;;17.90;82.31;102245.13;5047776;28;1165;-79
2023/10/06 11:48:33;;;;;;;;;;;;;;;17.91;82.18;102241.53;5047833;28;1156;-79
2023/10/06 11:51:00;;;;;;;;;;;;;;;17.91;82.57;102241.53;5042153;28;1165;-80
2023/10/06 11:53:26;;;;;;;;;;;;;;;17.94;81.99;102246.47;5049134;28;1118;-79
2023/10/06 11:55:53;;;;;;;;;;;;;;;17.95;81.68;102250.78;5026472;28;1207;-79
2023/10/06 11:58:30;;;;;;;;;;;;;;;17.94;81.42;102235.97;5042259;28;1913;-78
2023/10/06 12:00:55;;;;;;;;;;;;;;;17.94;81.86;102233.34;5042105;28;1471;-78
2023/10/06 12:03:31;;;;;;;;;;;;;;;17.96;81.84;102244.56;5044984;28;1106;-79
2023/10/06 12:05:57;;;;;;;;;;;;;;;18.01;81.46;102237.09;5046635;28;1301;-79
2023/10/06 12:08:22;;;;;;;;;;;;;;;18.04;81.07;102247.31;5026449;28;1267;-78
2023/10/06 12:10:48;;;;;;;;;;;;;;;18.09;80.76;102232.94;5045703;28;1414;-79
2023/10/06 12:13:13;;;;;;;;;;;;;;;18.14;80.25;102243.84;5030314;28;1286;-78
2023/10/06 12:15:38;;;;;;;;;;;;;;;18.18;80.62;102238.19;5048767;28;1217;-78
2023/10/06 12:18:04;;;;;;;;;;;;;;;18.28;80.65;102238.16;5045489;28;1885;-78
2023/10/06 12:20:29;;;;;;;;;;;;;;;18.35;80.24;102223.50;5048304;28;1174;-78
2023/10/06 12:22:55;;;;;;;;;;;;;;;18.40;79.81;102231.75;5043449;28;1203;-77
2023/10/06 12:25:23;;;;;;;;;;;;;;;18.38;79.43;102217.97;5026070;28;1673;-78
2023/10/06 12:27:48;;;;;;;;;;;;;;;18.35;78.75;102213.00;5045129;28;1108;-78
2023/10/06 12:30:14;;;;;;;;;;;;;;;18.35;79.25;102207.75;5047724;28;1198;-78
2023/10/06 12:32:41;;;;;;;;;;;;;;;18.40;79.59;102208.13;5029314;28;1260;-77
2023/10/06 12:35:07;;;;;;;;;;;;;;;18.40;79.67;102210.75;5044272;28;1114;-78
2023/10/06 12:37:33;;;;;;;;;;;;;;;18.44;79.20;102206.88;5032362;28;1894;-78
2023/10/06 12:39:58;;;;;;;;;;;;;;;18.49;79.02;102204.66;5047220;28;1235;-77
2023/10/06 12:42:24;;;;;;;;;;;;;;;18.64;78.47;102212.06;5044265;28;1050;-79
2023/10/06 12:44:49;;;;;;;;;;;;;;;18.60;79.02;102205.47;5046625;28;1177;-78
2023/10/06 12:47:14;;;;;;;;;;;;;;;18.60;78.17;102213.34;5051189;28;1198;-78
2023/10/06 12:49:43;;;;;;;;;;;;;;;18.61;78.30;102212.38;5051232;28;1163;-79
2023/10/06 12:52:09;;;;;;;;;;;;;;;18.57;78.38;102207.38;5045837;28;1207;-78
2023/10/06 12:54:36;;;;;;;;;;;;;;;18.60;77.81;102195.78;5049043;28;1079;-79
2023/10/06 12:57:01;;;;;;;;;;;;;;;18.58;78.56;102195.91;5030530;28;1918;-78
2023/10/06 12:59:26;;;;;;;;;;;;;;;18.61;78.21;102191.34;5052831;28;1033;-78
2023/10/06 13:01:51;;;;;;;;;;;;;;;18.63;77.81;102176.25;5042165;28;1076;-78
2023/10/06 13:04:17;;;;;;;;;;;;;;;18.63;77.83;102184.13;5044767;28;1030;-79